createdAt,value
2019-05-09T00:02:03.653Z,44.50
2019-05-09T00:07:10.183Z,46.50
2019-05-09T00:12:16.495Z,100.92
2019-05-09T00:17:23.301Z,65.80
2019-05-09T00:22:29.844Z,54.73
2019-05-09T00:27:35.906Z,34.88
2019-05-09T00:32:44.028Z,48.42
2019-05-09T00:38:09.369Z,42.53
2019-05-09T00:43:15.668Z,39.10
2019-05-09T00:48:25.571Z,39.20
2019-05-09T00:53:33.850Z,41.15
2019-05-09T00:58:39.730Z,46.53
2019-05-09T01:03:45.878Z,44.80
2019-05-09T01:08:53.662Z,48.52
2019-05-09T01:14:00.314Z,47.75
2019-05-09T01:19:06.715Z,45.25
2019-05-09T01:24:13.961Z,45.55
2019-05-09T01:29:20.348Z,48.20
2019-05-09T01:34:29.951Z,41.60
2019-05-09T01:39:37.122Z,44.58
2019-05-09T01:44:44.118Z,57.67
2019-05-09T01:49:50.425Z,46.28
2019-05-09T01:54:56.826Z,46.28
2019-05-09T02:00:04.222Z,48.30
2019-05-09T02:05:10.700Z,46.73
2019-05-09T02:10:16.955Z,58.10
2019-05-09T02:15:35.221Z,49.35
2019-05-09T02:20:43.765Z,55.48
2019-05-09T02:25:49.200Z,58.83
2019-05-09T02:30:55.590Z,49.58
2019-05-09T02:36:02.367Z,50.28
2019-05-09T02:41:08.850Z,50.03
2019-05-09T02:46:22.097Z,43.45
2019-05-09T02:51:29.187Z,50.20
2019-05-09T02:56:38.597Z,56.13
2019-05-09T03:02:09.191Z,55.52
2019-05-09T03:07:14.417Z,59.33
2019-05-09T03:12:30.995Z,69.22
2019-05-09T03:17:29.856Z,61.80
2019-05-09T03:22:39.282Z,54.50
2019-05-09T03:27:48.446Z,62.67
2019-05-09T03:32:54.189Z,57.95
2019-05-09T03:38:08.225Z,64.20
2019-05-09T03:43:14.265Z,55.23
2019-05-09T03:48:28.371Z,55.70
2019-05-09T03:53:34.813Z,55.08
2019-05-09T03:58:41.100Z,62.08
2019-05-09T04:03:48.140Z,39.38
2019-05-09T04:08:54.457Z,38.63
2019-05-09T04:14:04.619Z,28.83
2019-05-09T04:19:10.779Z,23.60
2019-05-09T04:24:17.673Z,32.83
2019-05-09T04:29:25.630Z,52.60
2019-05-09T04:34:32.274Z,54.00
2019-05-09T04:39:40.586Z,52.38
2019-05-09T04:44:57.642Z,50.58
2019-05-09T04:50:00.532Z,56.30
2019-05-09T04:55:08.011Z,66.35
2019-05-09T05:00:18.393Z,77.72
2019-05-09T05:05:24.772Z,74.10
2019-05-09T05:10:31.421Z,73.30
2019-05-09T05:15:37.857Z,74.77
2019-05-09T05:20:44.050Z,81.30
2019-05-09T05:25:50.238Z,66.90
2019-05-09T05:30:58.223Z,71.33
2019-05-09T05:36:07.936Z,66.22
2019-05-09T05:41:14.285Z,62.98
2019-05-09T05:46:33.144Z,73.15
2019-05-09T05:51:51.314Z,57.23
2019-05-09T05:56:58.050Z,44.25
2019-05-09T06:02:04.387Z,59.75
2019-05-09T06:07:10.648Z,53.92
2019-05-09T06:12:18.498Z,35.25
2019-05-09T06:17:24.679Z,47.08
2019-05-09T06:22:30.843Z,45.98
2019-05-09T06:27:37.650Z,54.00
2019-05-09T06:32:43.842Z,55.88
2019-05-09T06:37:50.328Z,53.28
2019-05-09T06:42:59.006Z,45.90
2019-05-09T06:48:04.369Z,25.77
2019-05-09T06:53:10.993Z,31.45
2019-05-09T06:58:32.492Z,32.05
2019-05-09T07:03:38.972Z,36.55
2019-05-09T07:08:48.457Z,39.40
2019-05-09T07:13:54.763Z,58.92
2019-05-09T07:19:01.068Z,50.65
2019-05-09T07:24:08.213Z,56.53
2019-05-09T07:29:14.598Z,57.10
2019-05-09T07:34:28.214Z,38.05
2019-05-09T07:39:34.262Z,44.70
2019-05-09T07:44:48.411Z,36.50
2019-05-09T07:49:48.605Z,46.53
2019-05-09T07:54:54.775Z,36.60
2019-05-09T08:00:01.129Z,47.27
2019-05-09T08:05:08.702Z,41.80
2019-05-09T08:10:17.438Z,39.03
2019-05-09T08:15:23.500Z,33.88
2019-05-09T08:20:30.003Z,36.13
2019-05-09T08:25:38.237Z,36.33
2019-05-09T08:30:44.401Z,34.23
2019-05-09T08:35:52.802Z,43.10
2019-05-09T08:41:09.698Z,42.58
2019-05-09T08:46:18.205Z,29.65
2019-05-09T08:51:38.487Z,36.28
2019-05-09T08:56:42.493Z,49.08
2019-05-09T09:02:10.644Z,43.60
2019-05-09T09:06:57.731Z,29.85
2019-05-09T09:12:03.916Z,35.30
2019-05-09T09:17:10.336Z,34.43
2019-05-09T09:22:18.039Z,30.72
2019-05-09T09:27:24.259Z,32.42
2019-05-09T09:32:30.389Z,34.25
2019-05-09T09:37:48.177Z,33.63
2019-05-09T09:42:45.127Z,28.35
2019-05-09T09:47:51.423Z,36.03
2019-05-09T09:52:58.959Z,28.85
2019-05-09T09:58:07.951Z,40.48
2019-05-09T10:03:13.544Z,33.30
2019-05-09T10:08:19.651Z,36.10
2019-05-09T10:13:28.388Z,43.65
2019-05-09T10:19:01.434Z,30.40
2019-05-09T10:24:08.069Z,26.15
2019-05-09T10:29:14.019Z,23.07
2019-05-09T10:34:20.460Z,30.45
2019-05-09T10:39:27.650Z,35.58
2019-05-09T10:44:38.693Z,36.83
2019-05-09T10:49:44.795Z,32.05
2019-05-09T10:54:51.200Z,25.40
2019-05-09T10:59:58.097Z,14.78
2019-05-09T11:05:04.569Z,18.70
2019-05-09T11:10:24.763Z,15.38
2019-05-09T11:15:19.111Z,16.50
2019-05-09T11:20:28.333Z,27.82
2019-05-09T11:25:34.558Z,21.05
2019-05-09T11:30:40.777Z,25.30
2019-05-09T11:35:48.010Z,31.10
2019-05-09T11:40:54.355Z,38.80
2019-05-09T11:46:00.572Z,39.83
2019-05-09T11:51:08.958Z,27.37
2019-05-09T11:56:17.692Z,34.60
2019-05-09T12:01:23.159Z,35.85
2019-05-09T12:06:29.690Z,39.65
2019-05-09T12:11:41.273Z,26.40
2019-05-09T12:16:43.802Z,28.90
2019-05-09T12:21:50.037Z,26.37
2019-05-09T12:26:57.623Z,19.55
2019-05-09T12:32:08.574Z,23.07
2019-05-09T12:37:14.502Z,29.35
2019-05-09T12:42:20.813Z,18.65
2019-05-09T12:47:29.057Z,25.20
2019-05-09T12:52:35.066Z,21.93
2019-05-09T12:57:41.341Z,22.00
2019-05-09T13:02:47.462Z,26.50
2019-05-09T13:07:53.716Z,24.92
2019-05-09T13:13:00.013Z,25.25
2019-05-09T13:18:21.098Z,33.00
2019-05-09T13:23:14.495Z,30.37
2019-05-09T13:28:20.788Z,28.05
2019-05-09T13:33:28.668Z,29.77
2019-05-09T13:38:37.678Z,35.65
2019-05-09T13:43:47.641Z,27.37
2019-05-09T13:49:06.254Z,27.73
2019-05-09T13:53:59.432Z,27.93
2019-05-09T13:59:08.050Z,27.80
2019-05-09T14:04:13.617Z,32.75
2019-05-09T14:09:20.465Z,20.92
2019-05-09T14:14:28.120Z,24.67
2019-05-09T14:19:44.393Z,33.08
2019-05-09T14:24:42.560Z,34.55
2019-05-09T14:29:49.749Z,43.70
2019-05-09T14:34:58.541Z,38.42
2019-05-09T14:40:05.328Z,30.92
2019-05-09T14:45:15.222Z,33.25
2019-05-09T14:50:21.410Z,33.92
2019-05-09T14:55:28.577Z,26.57
2019-05-09T15:00:35.388Z,30.60
2019-05-09T15:05:42.006Z,29.20
2019-05-09T15:10:48.626Z,25.88
2019-05-09T15:15:54.894Z,38.05
2019-05-09T15:21:01.043Z,28.75
2019-05-09T15:26:07.746Z,30.52
2019-05-09T15:31:15.264Z,27.30
2019-05-09T15:36:21.931Z,34.90
2019-05-09T15:41:28.369Z,34.05
2019-05-09T15:46:43.453Z,31.55
2019-05-09T15:51:49.689Z,27.30
2019-05-09T15:56:58.067Z,30.82
2019-05-09T16:02:04.206Z,36.50
2019-05-09T16:07:10.492Z,32.33
2019-05-09T16:12:18.450Z,31.55
2019-05-09T16:17:25.057Z,33.67
2019-05-09T16:22:31.364Z,33.73
2019-05-09T16:27:38.098Z,28.07
2019-05-09T16:32:44.914Z,35.63
2019-05-09T16:38:01.632Z,37.15
2019-05-09T16:42:58.939Z,39.53
2019-05-09T16:48:05.243Z,39.03
2019-05-09T16:53:11.478Z,37.93
2019-05-09T16:58:18.633Z,37.75
2019-05-09T17:03:25.062Z,44.23
2019-05-09T17:08:32.017Z,38.50
2019-05-09T17:13:38.281Z,33.42
2019-05-09T17:18:44.554Z,35.95
2019-05-09T17:23:50.890Z,33.55
2019-05-09T17:28:57.255Z,36.28
2019-05-09T17:34:04.012Z,27.42
2019-05-09T17:39:10.510Z,29.10
2019-05-09T17:44:18.598Z,37.25
2019-05-09T17:49:24.791Z,33.90
2019-05-09T17:54:31.083Z,31.62
2019-05-09T17:59:39.233Z,32.03
2019-05-09T18:04:47.771Z,32.48
2019-05-09T18:09:53.365Z,31.68
2019-05-09T18:14:59.729Z,38.02
2019-05-09T18:20:08.091Z,36.88
2019-05-09T18:25:14.920Z,33.05
2019-05-09T18:30:22.648Z,37.28
2019-05-09T18:35:29.684Z,30.85
2019-05-09T18:40:36.102Z,32.80
2019-05-09T18:45:42.578Z,33.42
2019-05-09T18:50:48.727Z,28.92
2019-05-09T18:55:55.061Z,33.20
2019-05-09T19:01:01.697Z,48.68
2019-05-09T19:06:07.979Z,36.50
2019-05-09T19:11:14.392Z,39.35
2019-05-09T19:16:35.490Z,38.78
2019-05-09T19:21:45.924Z,29.48
2019-05-09T19:26:52.192Z,32.48
2019-05-09T19:31:59.396Z,34.58
2019-05-09T19:37:06.255Z,36.42
2019-05-09T19:42:12.693Z,37.73
2019-05-09T19:47:18.888Z,33.10
2019-05-09T19:52:37.449Z,32.05
2019-05-09T19:57:33.036Z,34.80
2019-05-09T20:02:40.889Z,32.75
2019-05-09T20:07:47.204Z,42.45
2019-05-09T20:13:27.345Z,39.08
2019-05-09T20:18:33.524Z,55.12
2019-05-09T20:23:39.766Z,41.73
2019-05-09T20:28:46.133Z,43.40
2019-05-09T20:33:52.330Z,46.48
2019-05-09T20:38:59.123Z,52.45
2019-05-09T20:44:05.460Z,85.72
2019-05-09T20:49:12.291Z,36.33
2019-05-09T20:54:21.276Z,45.85
2019-05-09T20:59:26.930Z,36.08
2019-05-09T21:04:33.322Z,31.12
2019-05-09T21:09:39.824Z,34.43
2019-05-09T21:14:46.237Z,28.65
2019-05-09T21:19:52.695Z,28.85
2019-05-09T21:24:59.173Z,31.23
2019-05-09T21:30:06.681Z,27.80
2019-05-09T21:35:12.983Z,32.00
2019-05-09T21:40:19.487Z,24.77
2019-05-09T21:45:25.692Z,40.78
2019-05-09T21:50:31.943Z,38.90
2019-05-09T21:55:38.397Z,45.12
2019-05-09T22:00:47.003Z,40.15
2019-05-09T22:05:53.978Z,40.38
2019-05-09T22:11:00.436Z,23.12
2019-05-09T22:16:06.928Z,26.02
2019-05-09T22:21:21.827Z,24.30
2019-05-09T22:26:28.129Z,21.73
2019-05-09T22:31:34.423Z,26.97
2019-05-09T22:36:40.743Z,30.12
2019-05-09T22:41:47.180Z,24.27
2019-05-09T22:46:53.566Z,19.40
2019-05-09T22:51:59.936Z,23.47
2019-05-09T22:57:06.244Z,17.52
2019-05-09T23:02:12.461Z,22.42
2019-05-09T23:07:18.790Z,23.50
2019-05-09T23:12:25.391Z,19.17
2019-05-09T23:17:32.167Z,27.35
2019-05-09T23:22:38.510Z,15.98
2019-05-09T23:27:44.766Z,18.85
2019-05-09T23:32:51.160Z,13.72
2019-05-09T23:37:57.421Z,22.07
2019-05-09T23:43:03.935Z,17.30
2019-05-09T23:48:10.247Z,20.25
2019-05-09T23:53:22.337Z,21.85
2019-05-09T23:58:47.292Z,19.82
